Time;durP1;ratioP1;P1;durP2;ratioP2;P2;SDS_P1;SDS_P2;PMS_P1;PMS_P2;Temp;Humidity;BMP_temperature;BMP_pressure;BME280_temperature;BME280_humidity;BME280_pressure;Samples;Min_cycle;Max_cycle;Signal;HPM_P1;HPM_P2
2024/02/03 10:53:21;;;;;;;4.83;0.70;;;5.90;99.90;;;;;;1936286;73;25274;-93
2024/02/03 11:48:25;;;;;;;12.90;3.40;;;6.50;99.90;;;;;;1950307;72;26952;-93
2024/02/03 12:11:26;;;;;;;10.30;3.93;;;7.00;99.90;;;;;;1959040;72;27105;-94
2024/02/03 12:17:51;;;;;;;5.20;0.80;;;7.10;99.90;;;;;;1957316;72;28809;-93
2024/02/03 12:21:20;;;;;;;2.47;1.10;;;7.00;99.90;;;;;;1944566;73;25180;-93
2024/02/03 12:25:04;;;;;;;1.40;0.73;;;7.00;99.90;;;;;;1927234;73;25281;-93
2024/02/03 12:28:36;;;;;;;1.20;0.50;;;7.10;99.90;;;;;;1931536;73;25178;-93
2024/02/03 12:31:31;;;;;;;1.03;0.60;;;6.90;99.90;;;;;;1892806;73;25368;-93
2024/02/03 16:52:17;;;;;;;3.07;1.20;;;4.20;99.90;;;;;;1922181;72;31919;-93
2024/02/03 16:57:53;;;;;;;1.60;0.73;;;4.10;99.90;;;;;;1949861;72;27055;-92
2024/02/03 17:22:03;;;;;;;5.37;1.30;;;4.20;99.90;;;;;;1967540;72;26524;-91
2024/02/03 17:24:53;;;;;;;4.43;1.00;;;4.20;99.90;;;;;;1930355;73;25255;-92
2024/02/03 17:31:14;;;;;;;4.03;1.20;;;4.20;99.90;;;;;;1933039;73;25277;-92
2024/02/03 17:34:18;;;;;;;3.80;1.83;;;4.30;99.90;;;;;;1937783;72;25677;-92
2024/02/03 17:44:33;;;;;;;8.50;1.27;;;4.40;99.90;;;;;;1992897;71;28277;-92
2024/02/03 17:47:27;;;;;;;2.97;0.90;;;4.30;99.90;;;;;;1903149;75;25293;-92
2024/02/03 17:56:55;;;;;;;2.43;0.93;;;4.30;99.90;;;;;;1875168;75;25845;-92
2024/02/03 18:03:03;;;;;;;6.07;1.63;;;4.20;99.90;;;;;;1943215;72;26914;-91
2024/02/03 18:05:52;;;;;;;7.57;1.03;;;4.20;99.90;;;;;;1945626;73;25720;-92
2024/02/03 18:08:58;;;;;;;5.07;1.13;;;4.10;99.90;;;;;;1919237;73;25254;-93
2024/02/03 18:46:59;;;;;;;2.97;1.20;;;3.10;99.90;;;;;;1970220;69;25279;-93
2024/02/03 18:50:14;;;;;;;4.07;1.30;;;3.20;99.90;;;;;;1993380;69;25523;-93
2024/02/03 18:56:15;;;;;;;7.07;1.10;;;3.10;99.90;;;;;;1986530;71;25209;-93
2024/02/03 18:59:29;;;;;;;7.60;1.40;;;3.10;99.90;;;;;;1988304;72;25216;-93
2024/02/03 19:02:18;;;;;;;7.00;1.70;;;3.00;99.90;;;;;;1968637;71;25333;-93
2024/02/03 19:05:07;;;;;;;3.93;0.93;;;3.00;99.90;;;;;;2010307;69;25662;-92
2024/02/03 19:12:45;;;;;;;5.53;1.27;;;3.10;99.90;;;;;;2023293;70;26362;-92
2024/02/03 19:15:34;;;;;;;9.10;1.30;;;3.10;99.90;;;;;;1971850;72;25202;-93
2024/02/03 19:18:34;;;;;;;10.37;1.20;;;3.00;99.90;;;;;;1952369;72;25687;-91
2024/02/03 19:21:23;;;;;;;11.70;1.07;;;2.90;99.90;;;;;;1982116;72;25648;-91
2024/02/03 19:24:26;;;;;;;11.07;1.40;;;2.90;99.90;;;;;;1926316;73;25717;-92
2024/02/03 19:27:14;;;;;;;5.83;1.30;;;3.00;99.90;;;;;;1909477;74;25824;-92
2024/02/03 19:30:03;;;;;;;9.87;1.53;;;3.00;99.90;;;;;;1930453;73;25794;-92
2024/02/03 19:33:33;;;;;;;7.13;1.10;;;3.00;99.90;;;;;;1896419;74;25299;-92
2024/02/03 19:36:22;;;;;;;6.73;1.30;;;3.00;99.90;;;;;;1892929;74;25281;-92
2024/02/03 19:39:41;;;;;;;;;;;;;;;;;;;;;
2024/02/03 19:42:47;;;;;;;8.70;1.40;;;3.10;99.90;;;;;;1899054;74;25260;-92
2024/02/03 19:45:36;;;;;;;6.97;1.80;;;3.10;99.90;;;;;;1909091;74;25167;-90
2024/02/03 19:48:54;;;;;;;6.87;2.27;;;3.00;99.90;;;;;;1926106;74;25237;-92
2024/02/03 19:54:58;;;;;;;16.97;2.03;;;2.90;99.90;;;;;;1970858;71;28877;-92
2024/02/03 19:58:32;;;;;;;10.33;1.60;;;2.90;99.90;;;;;;1886054;72;25316;-92
2024/02/03 20:01:38;;;;;;;2.97;1.37;;;2.80;99.90;;;;;;1879131;74;25863;-91
2024/02/03 20:04:49;;;;;;;11.20;1.60;;;2.70;99.90;;;;;;1835687;76;25274;-92
2024/02/03 20:07:48;;;;;;;9.33;1.83;;;2.70;99.90;;;;;;1859196;76;25207;-92
2024/02/03 20:10:52;;;;;;;13.57;2.33;;;2.80;99.90;;;;;;1837229;76;25392;-92
2024/02/03 20:20:15;;;;;;;3.80;1.30;;;2.90;99.90;;;;;;1941383;73;25322;-91
2024/02/03 20:26:51;;;;;;;7.90;1.20;;;2.80;99.90;;;;;;1862356;73;25283;-92
2024/02/03 20:29:52;;;;;;;8.73;1.30;;;2.70;99.90;;;;;;1946276;73;25237;-91
2024/02/03 20:35:57;;;;;;;9.37;1.10;;;2.70;99.90;;;;;;1925556;73;25233;-92
2024/02/03 21:24:51;;;;;;;6.17;1.57;;;3.20;99.90;;;;;;1982924;72;26240;-91
2024/02/03 21:28:04;;;;;;;5.60;1.13;;;3.10;99.90;;;;;;1939483;73;25236;-92
2024/02/03 21:31:11;;;;;;;9.23;1.00;;;3.20;99.90;;;;;;1904125;74;25236;-92
2024/02/03 21:34:11;;;;;;;2.07;0.60;;;3.10;99.90;;;;;;1931734;73;25273;-92
2024/02/03 21:37:18;;;;;;;2.97;0.67;;;3.10;99.90;;;;;;1942714;73;25765;-92
2024/02/03 21:40:09;;;;;;;5.47;0.70;;;3.00;99.90;;;;;;1935780;73;25785;-92
2024/02/03 21:42:58;;;;;;;6.27;1.20;;;3.10;99.90;;;;;;1941392;73;25269;-91
2024/02/03 21:45:47;;;;;;;2.73;0.73;;;3.10;99.90;;;;;;1957286;72;25191;-93
2024/02/03 21:49:25;;;;;;;4.30;0.50;;;3.20;99.90;;;;;;1920713;73;25272;-92
2024/02/03 21:52:14;;;;;;;4.43;1.30;;;3.20;99.90;;;;;;1945040;72;25207;-92
2024/02/03 21:55:02;;;;;;;1.87;1.00;;;3.30;99.90;;;;;;1951304;72;25251;-91
2024/02/03 21:57:51;;;;;;;4.43;0.90;;;3.10;99.90;;;;;;1903605;73;25676;-91
2024/02/03 22:00:40;;;;;;;3.83;0.93;;;3.10;99.90;;;;;;1919496;75;25265;-91
2024/02/03 22:03:30;;;;;;;3.17;0.80;;;3.10;99.90;;;;;;1928083;73;25706;-93
2024/02/03 22:06:21;;;;;;;3.50;0.60;;;3.00;99.90;;;;;;1897654;73;25277;-93
2024/02/03 22:28:01;;;;;;;1.37;0.80;;;3.00;99.90;;;;;;1941179;72;27037;-91
2024/02/03 22:31:08;;;;;;;3.73;0.90;;;2.90;99.90;;;;;;1929225;73;25296;-92
2024/02/03 22:34:28;;;;;;;1.23;0.40;;;2.90;99.90;;;;;;1938596;73;25273;-92
2024/02/03 22:37:45;;;;;;;5.70;1.10;;;2.80;99.90;;;;;;1916091;73;25850;-92
2024/02/03 22:45:23;;;;;;;2.07;0.67;;;2.80;99.90;;;;;;2002270;71;26965;-91
